createdAt,value
2019-05-22T00:01:33.303Z,55.25
2019-05-22T00:04:06.916Z,55.07
2019-05-22T00:06:39.427Z,55.09
2019-05-22T00:09:12.813Z,55.21
2019-05-22T00:11:44.836Z,55.40
2019-05-22T00:14:15.977Z,55.40
2019-05-22T00:16:48.039Z,55.66
2019-05-22T00:19:20.446Z,55.74
2019-05-22T00:21:52.346Z,55.94
2019-05-22T00:24:27.925Z,56.15
2019-05-22T00:26:58.791Z,56.15
2019-05-22T00:29:31.759Z,56.52
2019-05-22T00:32:04.150Z,56.69
2019-05-22T00:34:36.892Z,56.87
2019-05-22T00:37:08.259Z,56.99
2019-05-22T00:39:41.324Z,57.22
2019-05-22T00:42:13.286Z,57.24
2019-05-22T00:44:47.188Z,57.29
2019-05-22T00:47:19.563Z,57.44
2019-05-22T00:49:53.494Z,57.61
2019-05-22T00:52:45.331Z,57.56
2019-05-22T00:55:17.222Z,57.88
2019-05-22T00:58:05.702Z,57.82
2019-05-22T01:00:41.412Z,57.90
2019-05-22T01:03:13.925Z,57.86
2019-05-22T01:05:44.235Z,58.28
2019-05-22T01:08:18.453Z,58.43
2019-05-22T01:10:56.366Z,58.58
2019-05-22T01:13:32.837Z,58.83
2019-05-22T01:16:05.948Z,58.90
2019-05-22T01:18:39.479Z,58.81
2019-05-22T01:21:11.116Z,59.33
2019-05-22T01:23:43.645Z,59.36
2019-05-22T01:26:17.872Z,59.56
2019-05-22T01:28:49.393Z,59.50
2019-05-22T01:31:25.231Z,59.55
2019-05-22T01:34:10.090Z,59.73
2019-05-22T01:36:45.944Z,59.99
2019-05-22T01:39:24.797Z,60.22
2019-05-22T01:41:58.137Z,60.12
2019-05-22T01:44:30.723Z,60.45
2019-05-22T01:47:05.501Z,60.45
2019-05-22T01:49:41.058Z,60.42
2019-05-22T01:52:13.416Z,60.61
2019-05-22T01:54:45.372Z,60.69
2019-05-22T01:57:16.309Z,60.59
2019-05-22T01:59:47.365Z,60.65
2019-05-22T02:02:23.506Z,61.03
2019-05-22T02:04:54.918Z,60.96
2019-05-22T02:07:27.257Z,61.22
2019-05-22T02:09:59.609Z,61.13
2019-05-22T02:12:36.630Z,61.10
2019-05-22T02:15:09.424Z,61.19
2019-05-22T02:17:40.705Z,60.70
2019-05-22T02:20:12.762Z,60.87
2019-05-22T02:22:45.069Z,61.28
2019-05-22T02:25:16.963Z,61.47
2019-05-22T02:27:48.974Z,61.78
2019-05-22T02:30:23.518Z,61.73
2019-05-22T02:32:56.465Z,61.15
2019-05-22T02:35:27.705Z,61.32
2019-05-22T02:38:00.231Z,61.62
2019-05-22T02:40:37.168Z,61.72
2019-05-22T02:43:10.243Z,61.74
2019-05-22T02:45:42.170Z,61.59
2019-05-22T02:48:14.667Z,61.29
2019-05-22T02:50:47.158Z,61.62
2019-05-22T02:53:20.651Z,61.57
2019-05-22T02:55:51.428Z,61.64
2019-05-22T02:58:22.537Z,61.73
2019-05-22T03:01:03.334Z,61.67
2019-05-22T03:03:38.121Z,61.61
2019-05-22T03:06:15.745Z,61.64
2019-05-22T03:09:05.910Z,61.81
2019-05-22T03:11:39.797Z,61.83
2019-05-22T03:14:12.528Z,61.53
2019-05-22T03:16:56.596Z,61.39
2019-05-22T03:19:43.669Z,61.54
2019-05-22T03:22:28.576Z,61.78
2019-05-22T03:25:04.609Z,61.36
2019-05-22T03:27:44.518Z,61.08
2019-05-22T03:30:34.293Z,61.11
2019-05-22T03:33:08.449Z,61.49
2019-05-22T03:35:51.965Z,61.75
2019-05-22T03:38:26.189Z,61.80
2019-05-22T03:40:57.623Z,61.96
2019-05-22T03:43:30.282Z,62.07
2019-05-22T03:46:05.225Z,61.86
2019-05-22T03:48:37.944Z,62.09
2019-05-22T03:51:14.864Z,62.37
2019-05-22T03:53:47.695Z,62.49
2019-05-22T03:56:22.072Z,62.61
2019-05-22T03:58:53.683Z,62.65
2019-05-22T04:01:24.964Z,62.67
2019-05-22T04:03:55.704Z,62.38
2019-05-22T04:06:26.050Z,62.43
2019-05-22T04:08:58.904Z,62.55
2019-05-22T04:11:32.539Z,62.74
2019-05-22T04:14:04.589Z,62.84
2019-05-22T04:16:36.183Z,62.89
2019-05-22T04:19:08.871Z,62.81
2019-05-22T04:21:39.686Z,62.71
2019-05-22T04:24:11.720Z,62.74
2019-05-22T04:26:43.034Z,62.86
2019-05-22T04:29:15.049Z,62.83
2019-05-22T04:31:54.080Z,62.78
2019-05-22T04:34:24.457Z,62.68
2019-05-22T04:36:56.545Z,62.65
2019-05-22T04:39:29.467Z,62.51
2019-05-22T04:42:02.004Z,62.52
2019-05-22T04:44:32.756Z,62.22
2019-05-22T04:47:04.882Z,61.80
2019-05-22T04:49:35.561Z,61.48
2019-05-22T04:52:06.177Z,61.44
2019-05-22T04:54:36.503Z,61.34
2019-05-22T04:57:08.422Z,61.35
2019-05-22T04:59:40.859Z,61.29
2019-05-22T05:02:12.029Z,61.03
2019-05-22T05:04:42.751Z,61.01
2019-05-22T05:07:17.596Z,61.04
2019-05-22T05:09:48.318Z,60.96
2019-05-22T05:12:18.700Z,60.94
2019-05-22T05:14:49.324Z,60.62
2019-05-22T05:17:20.211Z,60.58
2019-05-22T05:19:51.118Z,60.22
2019-05-22T05:22:31.267Z,59.82
2019-05-22T05:25:01.968Z,59.21
2019-05-22T05:27:32.983Z,58.53
2019-05-22T05:30:03.981Z,57.37
2019-05-22T05:32:35.540Z,56.42
2019-05-22T05:35:07.794Z,56.00
2019-05-22T05:37:40.206Z,55.83
2019-05-22T05:40:25.784Z,55.69
2019-05-22T05:42:57.335Z,54.91
2019-05-22T05:45:29.261Z,52.57
2019-05-22T05:48:00.507Z,50.42
2019-05-22T05:50:39.404Z,48.65
2019-05-22T05:53:08.289Z,46.98
2019-05-22T05:56:04.389Z,44.97
2019-05-22T05:58:35.146Z,43.37
2019-05-22T06:01:09.964Z,42.14
2019-05-22T06:03:42.080Z,41.48
2019-05-22T06:06:25.998Z,41.11
2019-05-22T06:09:00.954Z,40.35
2019-05-22T06:11:35.734Z,40.45
2019-05-22T06:14:09.044Z,40.50
2019-05-22T06:16:59.144Z,40.40
2019-05-22T06:19:33.092Z,39.76
2019-05-22T06:22:04.920Z,39.40
2019-05-22T06:24:38.669Z,40.14
2019-05-22T06:27:16.784Z,40.09
2019-05-22T06:30:00.938Z,39.94
2019-05-22T06:32:46.281Z,39.82
2019-05-22T06:35:17.106Z,39.36
2019-05-22T06:37:59.297Z,37.99
2019-05-22T06:40:30.951Z,37.16
2019-05-22T06:43:25.829Z,36.99
2019-05-22T06:45:56.908Z,36.44
2019-05-22T06:48:28.045Z,36.25
2019-05-22T06:50:59.288Z,35.88
2019-05-22T06:53:29.617Z,34.79
2019-05-22T06:56:00.042Z,34.96
2019-05-22T06:58:31.504Z,35.09
2019-05-22T07:01:03.563Z,34.79
2019-05-22T07:03:34.685Z,35.02
2019-05-22T07:06:06.806Z,35.50
2019-05-22T07:08:38.053Z,35.98
2019-05-22T07:11:09.453Z,36.24
2019-05-22T07:13:41.391Z,34.96
2019-05-22T07:16:12.885Z,34.11
2019-05-22T07:18:43.899Z,31.50
2019-05-22T07:21:14.934Z,31.28
2019-05-22T07:23:47.531Z,31.16
2019-05-22T07:26:18.232Z,31.48
2019-05-22T07:28:48.545Z,32.31
2019-05-22T07:31:21.148Z,32.21
2019-05-22T07:33:55.850Z,32.01
2019-05-22T07:36:28.762Z,31.81
2019-05-22T07:38:59.476Z,30.61
2019-05-22T07:41:31.343Z,29.97
2019-05-22T07:44:02.615Z,30.23
2019-05-22T07:46:34.742Z,30.71
2019-05-22T07:49:06.044Z,30.62
2019-05-22T07:51:50.543Z,30.19
2019-05-22T07:54:11.937Z,28.94
2019-05-22T07:56:45.855Z,29.29
2019-05-22T07:59:15.983Z,29.56
2019-05-22T08:01:48.406Z,29.12
2019-05-22T08:04:19.708Z,28.11
2019-05-22T08:06:50.568Z,28.89
2019-05-22T08:09:21.987Z,30.39
2019-05-22T08:11:53.333Z,30.50
2019-05-22T08:14:25.405Z,30.64
2019-05-22T08:16:56.905Z,30.47
2019-05-22T08:19:27.846Z,30.25
2019-05-22T08:22:07.313Z,29.86
2019-05-22T08:24:32.162Z,29.56
2019-05-22T08:27:05.421Z,29.56
2019-05-22T08:29:36.240Z,28.49
2019-05-22T08:32:08.989Z,28.92
2019-05-22T08:34:42.271Z,29.18
2019-05-22T08:37:16.197Z,29.08
2019-05-22T08:39:47.328Z,28.82
2019-05-22T08:42:21.627Z,28.95
2019-05-22T08:44:52.886Z,29.48
2019-05-22T08:47:24.185Z,29.18
2019-05-22T08:49:55.622Z,28.67
2019-05-22T08:52:28.503Z,28.18
2019-05-22T08:55:02.091Z,29.14
2019-05-22T08:57:34.472Z,28.63
2019-05-22T09:00:08.478Z,27.50
2019-05-22T09:02:39.589Z,26.99
2019-05-22T09:05:10.999Z,27.18
2019-05-22T09:07:44.572Z,27.14
2019-05-22T09:10:16.384Z,26.34
2019-05-22T09:12:47.538Z,27.40
2019-05-22T09:15:18.598Z,27.16
2019-05-22T09:17:50.634Z,27.23
2019-05-22T09:20:22.711Z,26.69
2019-05-22T09:22:53.751Z,28.47
2019-05-22T09:25:24.734Z,29.42
2019-05-22T09:27:56.582Z,30.18
2019-05-22T09:30:27.290Z,29.49
2019-05-22T09:33:00.706Z,28.73
2019-05-22T09:35:31.702Z,27.83
2019-05-22T09:38:02.370Z,26.87
2019-05-22T09:40:33.081Z,27.14
2019-05-22T09:43:05.787Z,26.46
2019-05-22T09:45:38.294Z,26.59
2019-05-22T09:48:09.015Z,27.13
2019-05-22T09:50:39.840Z,27.09
2019-05-22T09:53:11.767Z,26.80
2019-05-22T09:55:47.130Z,26.69
2019-05-22T09:58:15.820Z,26.86
2019-05-22T10:00:46.741Z,26.17
2019-05-22T10:03:19.016Z,26.88
2019-05-22T10:05:50.159Z,27.44
2019-05-22T10:08:22.133Z,26.77
2019-05-22T10:10:52.845Z,26.59
2019-05-22T10:13:28.965Z,25.66
2019-05-22T10:15:58.675Z,25.00
2019-05-22T10:18:30.072Z,25.05
2019-05-22T10:21:01.126Z,25.56
2019-05-22T10:23:33.028Z,25.24
2019-05-22T10:26:04.710Z,25.04
2019-05-22T10:28:36.488Z,25.04
2019-05-22T10:31:08.982Z,24.57
2019-05-22T10:33:41.219Z,24.93
2019-05-22T10:36:12.158Z,25.43
2019-05-22T10:38:43.314Z,25.82
2019-05-22T10:41:14.128Z,26.26
2019-05-22T10:43:46.145Z,26.49
2019-05-22T10:46:16.960Z,25.90
2019-05-22T10:48:48.793Z,25.85
2019-05-22T10:51:19.408Z,25.66
2019-05-22T10:53:50.137Z,26.58
2019-05-22T10:56:20.681Z,26.62
2019-05-22T10:58:52.116Z,26.79
2019-05-22T11:01:23.567Z,26.33
2019-05-22T11:03:56.450Z,26.09
2019-05-22T11:06:27.756Z,25.90
2019-05-22T11:08:59.666Z,25.77
2019-05-22T11:11:32.133Z,25.69
2019-05-22T11:14:04.864Z,25.68
2019-05-22T11:16:35.232Z,26.12
2019-05-22T11:19:06.071Z,26.26
2019-05-22T11:21:36.594Z,26.14
2019-05-22T11:24:07.845Z,25.55
2019-05-22T11:26:38.267Z,26.02
2019-05-22T11:29:10.088Z,26.90
2019-05-22T11:31:40.873Z,27.31
2019-05-22T11:34:11.427Z,27.42
2019-05-22T11:36:42.422Z,27.76
2019-05-22T11:39:18.742Z,28.18
2019-05-22T11:41:49.255Z,28.50
2019-05-22T11:44:21.116Z,28.97
2019-05-22T11:46:53.213Z,29.38
2019-05-22T11:49:26.537Z,28.82
2019-05-22T11:51:57.692Z,29.02
2019-05-22T11:54:29.167Z,29.43
2019-05-22T11:56:59.743Z,29.59
2019-05-22T11:59:31.438Z,29.62
2019-05-22T12:02:02.273Z,29.77
2019-05-22T12:04:47.382Z,29.89
2019-05-22T12:07:07.795Z,30.28
2019-05-22T12:09:40.898Z,30.54
2019-05-22T12:12:11.654Z,31.24
2019-05-22T12:14:42.559Z,30.88
2019-05-22T12:17:14.311Z,30.45
2019-05-22T12:19:48.321Z,29.37
2019-05-22T12:22:20.000Z,29.26
2019-05-22T12:24:51.554Z,28.83
2019-05-22T12:27:21.880Z,28.62
2019-05-22T12:29:54.338Z,29.46
2019-05-22T12:32:25.224Z,29.68
2019-05-22T12:34:56.804Z,29.48
2019-05-22T12:37:28.054Z,30.00
2019-05-22T12:40:01.570Z,29.79
2019-05-22T12:42:33.068Z,30.13
2019-05-22T12:45:05.610Z,30.08
2019-05-22T12:47:36.408Z,30.14
2019-05-22T12:50:09.612Z,30.80
2019-05-22T12:52:40.862Z,30.67
2019-05-22T12:55:11.816Z,30.78
2019-05-22T12:57:42.287Z,31.11
2019-05-22T13:00:14.105Z,31.73
2019-05-22T13:02:45.336Z,31.75
2019-05-22T13:05:17.382Z,31.33
2019-05-22T13:07:48.231Z,30.71
2019-05-22T13:10:20.296Z,30.53
2019-05-22T13:12:51.102Z,30.51
2019-05-22T13:15:25.345Z,29.94
2019-05-22T13:17:58.077Z,29.80
2019-05-22T13:20:42.363Z,30.15
2019-05-22T13:23:07.581Z,29.72
2019-05-22T13:25:41.638Z,29.57
2019-05-22T13:28:14.646Z,28.97
2019-05-22T13:30:48.551Z,29.14
2019-05-22T13:33:22.690Z,28.67
2019-05-22T13:35:56.980Z,28.87
2019-05-22T13:38:28.457Z,29.70
2019-05-22T13:41:01.418Z,29.45
2019-05-22T13:43:32.935Z,29.64
2019-05-22T13:46:03.972Z,30.53
2019-05-22T13:48:35.458Z,30.18
2019-05-22T13:51:08.728Z,29.97
2019-05-22T13:53:40.989Z,29.25
2019-05-22T13:56:12.913Z,28.78
2019-05-22T13:58:44.245Z,28.53
2019-05-22T14:01:15.693Z,29.23
2019-05-22T14:03:46.230Z,29.60
2019-05-22T14:06:17.442Z,29.70
2019-05-22T14:08:47.847Z,29.69
2019-05-22T14:11:19.180Z,29.68
2019-05-22T14:13:50.190Z,29.58
2019-05-22T14:16:22.014Z,29.66
2019-05-22T14:18:52.436Z,28.59
2019-05-22T14:21:22.986Z,28.67
2019-05-22T14:23:53.392Z,28.77
2019-05-22T14:26:23.942Z,28.89
2019-05-22T14:28:54.686Z,29.00
2019-05-22T14:31:25.998Z,28.87
2019-05-22T14:33:57.124Z,28.83
2019-05-22T14:36:29.302Z,29.07
2019-05-22T14:38:59.851Z,27.94
2019-05-22T14:41:30.879Z,28.37
2019-05-22T14:44:01.193Z,29.59
2019-05-22T14:46:33.281Z,30.08
2019-05-22T14:49:03.883Z,29.61
2019-05-22T14:51:34.927Z,30.35
2019-05-22T14:54:06.049Z,30.42
2019-05-22T14:56:36.520Z,30.59
2019-05-22T14:59:07.185Z,30.71
2019-05-22T15:01:38.167Z,30.83
2019-05-22T15:04:08.480Z,30.69
2019-05-22T15:06:39.137Z,30.63
2019-05-22T15:09:10.776Z,30.60
2019-05-22T15:11:41.976Z,31.24
2019-05-22T15:14:12.224Z,30.26
2019-05-22T15:16:42.863Z,30.06
2019-05-22T15:19:14.630Z,30.16
2019-05-22T15:21:44.863Z,29.58
2019-05-22T15:24:15.424Z,29.78
2019-05-22T15:26:46.063Z,29.13
2019-05-22T15:29:16.447Z,28.96
2019-05-22T15:31:48.177Z,28.57
2019-05-22T15:34:19.909Z,28.57
2019-05-22T15:36:51.383Z,28.87
2019-05-22T15:39:25.886Z,29.17
2019-05-22T15:41:57.319Z,29.33
2019-05-22T15:44:28.384Z,29.47
2019-05-22T15:47:00.875Z,29.94
2019-05-22T15:49:33.292Z,29.94
2019-05-22T15:52:07.514Z,30.25
2019-05-22T15:54:40.314Z,30.20
2019-05-22T15:57:12.601Z,29.43
2019-05-22T15:59:45.550Z,29.44
2019-05-22T16:02:21.523Z,29.31
2019-05-22T16:04:53.592Z,29.20
2019-05-22T16:07:24.833Z,29.33
2019-05-22T16:09:56.022Z,29.57
2019-05-22T16:12:28.881Z,29.70
2019-05-22T16:15:01.541Z,29.75
2019-05-22T16:17:33.615Z,29.93
2019-05-22T16:20:08.833Z,29.90
2019-05-22T16:22:39.492Z,29.52
2019-05-22T16:25:11.063Z,28.38
2019-05-22T16:27:43.432Z,28.83
2019-05-22T16:30:14.645Z,28.47
2019-05-22T16:32:46.981Z,28.44
2019-05-22T16:35:18.415Z,28.62
2019-05-22T16:37:50.738Z,28.55
2019-05-22T16:40:22.555Z,28.74
2019-05-22T16:42:55.490Z,28.79
2019-05-22T16:45:26.926Z,28.66
2019-05-22T16:48:02.165Z,28.75
2019-05-22T16:50:32.590Z,28.93
2019-05-22T16:53:06.618Z,28.97
2019-05-22T16:55:39.658Z,29.13
2019-05-22T16:58:13.074Z,29.08
2019-05-22T17:00:45.816Z,28.82
2019-05-22T17:03:18.149Z,28.87
2019-05-22T17:05:50.007Z,29.20
2019-05-22T17:08:23.857Z,29.26
2019-05-22T17:10:54.467Z,29.44
2019-05-22T17:13:25.702Z,29.36
2019-05-22T17:15:57.530Z,29.68
2019-05-22T17:18:46.098Z,30.00
2019-05-22T17:21:05.715Z,29.80
2019-05-22T17:23:37.355Z,29.27
2019-05-22T17:26:10.161Z,29.50
2019-05-22T17:28:41.266Z,29.61
2019-05-22T17:31:11.886Z,30.01
2019-05-22T17:33:43.353Z,30.12
2019-05-22T17:36:16.431Z,30.25
2019-05-22T17:38:47.955Z,29.78
2019-05-22T17:41:19.700Z,29.99
2019-05-22T17:43:50.842Z,30.25
2019-05-22T17:46:21.571Z,30.50
2019-05-22T17:48:54.354Z,30.71
2019-05-22T17:51:25.588Z,30.83
2019-05-22T17:53:57.262Z,30.88
2019-05-22T17:56:28.547Z,31.38
2019-05-22T17:58:59.233Z,31.77
2019-05-22T18:01:30.368Z,32.05
2019-05-22T18:04:02.441Z,32.29
2019-05-22T18:06:33.536Z,32.57
2019-05-22T18:09:08.032Z,32.90
2019-05-22T18:11:38.833Z,33.38
2019-05-22T18:14:13.514Z,33.73
2019-05-22T18:16:43.966Z,33.83
2019-05-22T18:19:15.179Z,33.85
2019-05-22T18:21:45.999Z,34.22
2019-05-22T18:24:16.969Z,34.58
2019-05-22T18:26:47.943Z,34.73
2019-05-22T18:29:19.080Z,34.72
2019-05-22T18:31:50.242Z,34.64
2019-05-22T18:34:22.109Z,34.78
2019-05-22T18:36:52.769Z,34.71
2019-05-22T18:39:24.668Z,34.77
2019-05-22T18:41:55.026Z,34.84
2019-05-22T18:44:26.297Z,34.75
2019-05-22T18:49:27.903Z,34.98
2019-05-22T18:51:59.019Z,35.25
2019-05-22T18:54:29.316Z,35.48
2019-05-22T18:57:00.140Z,35.80
2019-05-22T18:59:31.596Z,36.14
2019-05-22T19:02:02.094Z,36.44
2019-05-22T19:04:32.569Z,36.81
2019-05-22T19:07:04.113Z,37.13
2019-05-22T19:09:35.565Z,37.40
2019-05-22T19:12:06.637Z,37.63
2019-05-22T19:14:38.406Z,37.99
2019-05-22T19:17:09.531Z,38.26
2019-05-22T19:19:42.728Z,38.54
2019-05-22T19:22:13.563Z,38.80
2019-05-22T19:24:44.111Z,39.10
2019-05-22T19:27:15.104Z,39.37
2019-05-22T19:29:46.629Z,39.67
2019-05-22T19:32:17.920Z,39.86
2019-05-22T19:34:49.177Z,40.14
2019-05-22T19:37:20.219Z,40.42
2019-05-22T19:39:53.364Z,40.69
2019-05-22T19:42:24.464Z,40.87
2019-05-22T19:44:55.276Z,41.11
2019-05-22T19:47:25.825Z,41.66
2019-05-22T19:49:59.065Z,41.79
2019-05-22T19:52:41.045Z,42.06
2019-05-22T19:55:07.139Z,42.12
2019-05-22T19:57:38.713Z,42.56
2019-05-22T20:00:11.100Z,42.64
2019-05-22T20:02:42.761Z,42.72
2019-05-22T20:05:14.217Z,42.89
2019-05-22T20:07:45.157Z,42.92
2019-05-22T20:10:17.549Z,43.00
2019-05-22T20:12:49.066Z,43.02
2019-05-22T20:15:20.676Z,43.02
2019-05-22T20:17:52.746Z,43.05
2019-05-22T20:20:28.701Z,43.07
2019-05-22T20:22:59.865Z,43.37
2019-05-22T20:25:31.260Z,44.03
2019-05-22T20:28:03.093Z,43.85
2019-05-22T20:30:35.078Z,43.75
2019-05-22T20:33:06.195Z,44.43
2019-05-22T20:35:38.598Z,44.44
2019-05-22T20:38:09.123Z,44.38
2019-05-22T20:40:42.544Z,44.69
2019-05-22T20:43:14.765Z,44.85
2019-05-22T20:45:45.999Z,45.00
2019-05-22T20:48:29.978Z,45.23
2019-05-22T20:51:01.423Z,45.05
2019-05-22T20:53:33.152Z,45.33
2019-05-22T20:56:05.284Z,45.47
2019-05-22T20:58:36.726Z,45.63
2019-05-22T21:01:08.453Z,45.70
2019-05-22T21:03:40.404Z,45.72
2019-05-22T21:06:15.709Z,45.85
2019-05-22T21:08:47.770Z,46.06
2019-05-22T21:11:22.324Z,46.46
2019-05-22T21:13:54.913Z,46.16
2019-05-22T21:16:26.727Z,46.18
2019-05-22T21:18:57.818Z,46.61
2019-05-22T21:21:29.890Z,46.58
2019-05-22T21:24:11.285Z,46.52
2019-05-22T21:26:35.226Z,46.83
2019-05-22T21:29:07.387Z,46.79
2019-05-22T21:31:39.082Z,46.82
2019-05-22T21:34:10.243Z,47.07
2019-05-22T21:36:42.051Z,47.16
2019-05-22T21:39:13.400Z,47.76
2019-05-22T21:41:44.864Z,47.66
2019-05-22T21:44:16.895Z,47.93
2019-05-22T21:46:48.758Z,48.04
2019-05-22T21:49:19.696Z,48.18
2019-05-22T21:51:50.634Z,48.15
2019-05-22T21:54:21.670Z,48.30
2019-05-22T21:56:54.866Z,48.46
2019-05-22T21:59:25.503Z,48.63
2019-05-22T22:01:58.534Z,48.76
2019-05-22T22:04:34.327Z,48.64
2019-05-22T22:07:07.102Z,48.45
2019-05-22T22:09:38.371Z,48.44
2019-05-22T22:12:09.732Z,48.50
2019-05-22T22:14:42.070Z,48.27
2019-05-22T22:17:16.479Z,48.09
2019-05-22T22:19:47.395Z,48.22
2019-05-22T22:22:25.323Z,48.25
2019-05-22T22:24:56.038Z,48.53
2019-05-22T22:27:30.395Z,48.73
2019-05-22T22:30:02.932Z,49.04
2019-05-22T22:32:36.256Z,49.04
2019-05-22T22:35:10.469Z,49.11
2019-05-22T22:37:45.041Z,49.20
2019-05-22T22:40:18.895Z,49.39
2019-05-22T22:42:51.976Z,49.49
2019-05-22T22:45:41.573Z,49.62
2019-05-22T22:48:16.761Z,49.90
2019-05-22T22:50:50.148Z,49.88
2019-05-22T22:53:21.415Z,50.12
2019-05-22T22:55:52.195Z,50.14
2019-05-22T22:58:23.637Z,49.86
2019-05-22T23:00:55.511Z,49.87
2019-05-22T23:03:30.205Z,50.04
2019-05-22T23:06:01.643Z,49.97
2019-05-22T23:08:35.653Z,49.91
2019-05-22T23:11:07.326Z,50.11
2019-05-22T23:13:39.934Z,50.17
2019-05-22T23:16:12.084Z,50.31
2019-05-22T23:18:46.329Z,50.26
2019-05-22T23:21:17.485Z,50.43
2019-05-22T23:23:47.989Z,50.62
2019-05-22T23:26:19.705Z,50.92
2019-05-22T23:28:51.750Z,51.11
2019-05-22T23:31:24.078Z,51.14
2019-05-22T23:33:57.411Z,51.02
2019-05-22T23:36:28.762Z,51.26
2019-05-22T23:39:02.213Z,51.32
2019-05-22T23:41:34.930Z,51.17
2019-05-22T23:44:13.041Z,51.27
2019-05-22T23:46:44.585Z,50.80
2019-05-22T23:49:17.460Z,50.80
2019-05-22T23:51:48.647Z,50.62
2019-05-22T23:54:22.809Z,50.15
2019-05-22T23:56:54.657Z,50.13
2019-05-22T23:59:25.786Z,50.06
